Time;durP1;ratioP1;P1;durP2;ratioP2;P2;SDS_P1;SDS_P2;PMS_P1;PMS_P2;Temp;Humidity;BMP_temperature;BMP_pressure;BME280_temperature;BME280_humidity;BME280_pressure;Samples;Min_cycle;Max_cycle;Signal;HPM_P1;HPM_P2
2024/01/21 00:01:53;;;;;;;0.40;0.40;;;;;;;;;;5009673;28;20232;-73
2024/01/21 00:04:20;;;;;;;0.60;0.60;;;;;;;;;;5012559;28;20311;-73
2024/01/21 00:06:46;;;;;;;1.70;1.00;;;;;;;;;;5023318;28;20292;-74
2024/01/21 00:09:36;;;;;;;0.60;0.60;;;;;;;;;;5012722;28;20311;-73
2024/01/21 00:12:03;;;;;;;0.50;0.50;;;;;;;;;;5013182;28;20282;-74
2024/01/21 00:14:29;;;;;;;0.80;0.80;;;;;;;;;;5012713;28;20239;-73
2024/01/21 00:16:56;;;;;;;0.40;0.40;;;;;;;;;;5013852;28;20231;-73
2024/01/21 00:19:22;;;;;;;1.20;1.13;;;;;;;;;;5008997;28;20707;-73
2024/01/21 00:21:49;;;;;;;1.57;1.47;;;;;;;;;;5010704;28;20345;-73
2024/01/21 00:24:16;;;;;;;1.90;1.33;;;;;;;;;;5008584;28;20698;-73
2024/01/21 00:26:43;;;;;;;2.30;1.07;;;;;;;;;;5008751;28;20647;-73
2024/01/21 00:29:09;;;;;;;1.23;1.23;;;;;;;;;;5012753;28;20239;-73
2024/01/21 00:31:36;;;;;;;0.67;0.67;;;;;;;;;;5011520;28;20228;-73
2024/01/21 00:34:02;;;;;;;0.97;0.97;;;;;;;;;;5009727;28;20319;-73
2024/01/21 00:36:29;;;;;;;1.03;0.83;;;;;;;;;;5028329;28;20236;-73
2024/01/21 00:38:55;;;;;;;2.40;1.97;;;;;;;;;;5024595;28;20228;-73
2024/01/21 00:41:21;;;;;;;1.30;1.20;;;;;;;;;;5012368;28;20308;-73
2024/01/21 00:43:48;;;;;;;1.50;1.43;;;;;;;;;;5008094;28;20221;-74
2024/01/21 00:46:14;;;;;;;1.57;1.20;;;;;;;;;;5009694;28;20738;-73
2024/01/21 00:48:41;;;;;;;3.40;1.83;;;;;;;;;;5012126;28;20219;-73
2024/01/21 00:51:07;;;;;;;1.57;1.47;;;;;;;;;;5011713;28;20248;-73
2024/01/21 00:53:34;;;;;;;1.57;1.47;;;;;;;;;;5012420;28;20279;-73
2024/01/21 00:56:00;;;;;;;1.37;1.23;;;;;;;;;;5011929;28;20233;-73
2024/01/21 00:58:26;;;;;;;1.87;1.77;;;;;;;;;;5010560;28;20224;-73
2024/01/21 01:00:53;;;;;;;1.37;1.30;;;;;;;;;;5025808;28;20228;-73
2024/01/21 01:03:20;;;;;;;2.00;1.37;;;;;;;;;;5011696;28;20221;-73
2024/01/21 01:05:47;;;;;;;2.07;1.90;;;;;;;;;;5011982;28;20228;-73
2024/01/21 01:08:13;;;;;;;2.50;2.10;;;;;;;;;;5010397;28;20299;-73
2024/01/21 01:10:40;;;;;;;2.20;1.73;;;;;;;;;;5012619;28;20236;-73
2024/01/21 01:13:06;;;;;;;1.87;1.77;;;;;;;;;;5009293;28;20240;-73
2024/01/21 01:15:33;;;;;;;1.90;1.80;;;;;;;;;;5011548;28;20227;-73
2024/01/21 01:17:59;;;;;;;2.13;1.93;;;;;;;;;;5011410;28;20307;-73
2024/01/21 01:20:25;;;;;;;1.80;1.70;;;;;;;;;;5012778;28;20233;-73
2024/01/21 01:22:52;;;;;;;1.40;1.30;;;;;;;;;;5009008;28;20596;-73
2024/01/21 01:25:21;;;;;;;2.13;1.10;;;;;;;;;;5008259;28;20746;-73
2024/01/21 01:27:47;;;;;;;1.33;1.27;;;;;;;;;;5029214;28;20424;-73
2024/01/21 01:30:15;;;;;;;1.50;1.40;;;;;;;;;;5026145;28;20275;-73
2024/01/21 01:32:41;;;;;;;1.53;1.47;;;;;;;;;;5012167;28;20323;-73
2024/01/21 01:35:08;;;;;;;1.37;1.30;;;;;;;;;;5011229;28;20232;-73
2024/01/21 01:37:34;;;;;;;1.47;1.37;;;;;;;;;;5012777;28;20339;-73
2024/01/21 01:40:03;;;;;;;1.40;1.10;;;;;;;;;;5010898;28;20228;-73
2024/01/21 01:42:30;;;;;;;1.20;1.10;;;;;;;;;;5025609;28;20228;-73
2024/01/21 01:44:56;;;;;;;1.40;1.30;;;;;;;;;;5012506;28;20232;-73
2024/01/21 01:47:23;;;;;;;1.40;1.40;;;;;;;;;;5011128;28;20715;-73
2024/01/21 01:49:49;;;;;;;1.73;1.63;;;;;;;;;;5027177;28;20231;-73
2024/01/21 01:52:17;;;;;;;1.60;1.50;;;;;;;;;;5011300;28;20290;-73
2024/01/21 01:54:47;;;;;;;1.90;1.80;;;;;;;;;;5012079;28;20240;-73
2024/01/21 01:57:15;;;;;;;1.10;1.07;;;;;;;;;;5026606;28;20232;-73
2024/01/21 01:59:42;;;;;;;1.43;1.33;;;;;;;;;;5027773;28;20255;-73
2024/01/21 02:02:10;;;;;;;2.90;1.47;;;;;;;;;;5035312;28;20217;-73
2024/01/21 02:04:36;;;;;;;5.73;1.33;;;;;;;;;;5027492;28;20642;-73
2024/01/21 02:07:03;;;;;;;2.67;1.40;;;;;;;;;;5012480;28;20239;-73
2024/01/21 02:09:29;;;;;;;2.10;2.00;;;;;;;;;;5010492;28;20227;-73
2024/01/21 02:11:57;;;;;;;1.93;1.13;;;;;;;;;;5011165;28;20232;-73
2024/01/21 02:14:24;;;;;;;0.97;0.97;;;;;;;;;;5011791;28;20224;-73
2024/01/21 02:16:50;;;;;;;3.03;2.50;;;;;;;;;;5011797;28;20255;-73
2024/01/21 02:19:27;;;;;;;1.50;1.40;;;;;;;;;;5012660;28;20306;-73
2024/01/21 02:21:55;;;;;;;1.27;1.27;;;;;;;;;;5006483;28;20247;-73
2024/01/21 02:24:27;;;;;;;1.33;1.30;;;;;;;;;;5011012;28;20229;-73
2024/01/21 02:26:55;;;;;;;2.17;2.07;;;;;;;;;;5009747;28;20312;-73
2024/01/21 02:29:21;;;;;;;1.90;1.80;;;;;;;;;;5010358;28;20319;-73
2024/01/21 02:31:48;;;;;;;0.57;0.57;;;;;;;;;;5032562;28;20228;-73
2024/01/21 02:34:15;;;;;;;0.90;0.90;;;;;;;;;;5012189;28;20243;-73
2024/01/21 02:36:41;;;;;;;0.97;0.97;;;;;;;;;;5004385;28;20232;-73
2024/01/21 02:39:09;;;;;;;1.47;1.40;;;;;;;;;;5009875;28;20220;-73
2024/01/21 02:41:35;;;;;;;0.80;0.80;;;;;;;;;;5008747;28;20267;-73
2024/01/21 02:44:02;;;;;;;0.30;0.30;;;;;;;;;;5009832;28;20228;-73
2024/01/21 02:46:28;;;;;;;0.73;0.73;;;;;;;;;;5027054;28;20231;-73
2024/01/21 02:48:55;;;;;;;0.50;0.50;;;;;;;;;;5023607;28;20231;-73
2024/01/21 02:51:22;;;;;;;3.87;0.73;;;;;;;;;;5024345;28;20236;-74
2024/01/21 02:53:50;;;;;;;1.80;1.27;;;;;;;;;;5034902;28;20228;-73
2024/01/21 02:56:23;;;;;;;2.40;1.47;;;;;;;;;;5032000;28;20292;-74
2024/01/21 02:58:51;;;;;;;0.47;0.47;;;;;;;;;;5020315;28;20876;-73
2024/01/21 03:01:18;;;;;;;0.40;0.40;;;;;;;;;;5010198;28;20245;-73
2024/01/21 03:03:45;;;;;;;0.30;0.30;;;;;;;;;;5010919;28;20232;-73
2024/01/21 03:06:11;;;;;;;0.47;0.47;;;;;;;;;;5011379;28;21187;-73
2024/01/21 03:08:38;;;;;;;8.87;1.63;;;;;;;;;;5008381;28;20281;-74
2024/01/21 03:11:04;;;;;;;0.73;0.73;;;;;;;;;;5010726;28;20596;-73
2024/01/21 03:13:31;;;;;;;0.50;0.50;;;;;;;;;;5011064;28;20279;-73
2024/01/21 03:15:57;;;;;;;0.40;0.40;;;;;;;;;;5009853;28;20239;-73
2024/01/21 03:18:26;;;;;;;0.30;0.30;;;;;;;;;;5010996;28;20228;-73
2024/01/21 03:20:52;;;;;;;1.90;1.70;;;;;;;;;;5007209;28;20232;-73
2024/01/21 03:23:19;;;;;;;0.90;0.90;;;;;;;;;;5010359;28;20236;-73
2024/01/21 03:25:45;;;;;;;0.60;0.60;;;;;;;;;;5012632;28;20236;-73
2024/01/21 03:28:12;;;;;;;1.00;1.00;;;;;;;;;;5009891;28;20224;-73
2024/01/21 03:30:39;;;;;;;0.30;0.30;;;;;;;;;;5009668;28;20224;-73
2024/01/21 03:33:05;;;;;;;0.73;0.73;;;;;;;;;;5006206;28;20240;-73
2024/01/21 03:35:32;;;;;;;0.50;0.50;;;;;;;;;;5010747;28;20235;-72
2024/01/21 03:37:59;;;;;;;0.97;0.97;;;;;;;;;;5007770;28;20235;-73
2024/01/21 03:40:25;;;;;;;0.70;0.70;;;;;;;;;;5024856;28;20311;-73
2024/01/21 03:42:54;;;;;;;1.50;1.40;;;;;;;;;;5010267;28;20252;-73
2024/01/21 03:45:20;;;;;;;0.60;0.60;;;;;;;;;;5007520;28;20997;-73
2024/01/21 03:47:48;;;;;;;0.87;0.87;;;;;;;;;;5009666;28;20278;-73
2024/01/21 03:50:20;;;;;;;2.53;1.50;;;;;;;;;;5024894;28;20279;-73
2024/01/21 03:52:47;;;;;;;0.63;0.63;;;;;;;;;;5019795;28;20743;-73
2024/01/21 03:55:15;;;;;;;1.23;1.23;;;;;;;;;;5009707;28;20225;-73
2024/01/21 03:57:41;;;;;;;1.50;1.40;;;;;;;;;;5008695;28;20228;-73
2024/01/21 04:00:09;;;;;;;0.70;0.70;;;;;;;;;;5009687;28;20279;-73
2024/01/21 04:02:36;;;;;;;0.37;0.37;;;;;;;;;;5010478;28;20233;-73
2024/01/21 04:05:03;;;;;;;1.20;1.20;;;;;;;;;;5025245;28;20224;-73
2024/01/21 04:07:31;;;;;;;1.07;1.07;;;;;;;;;;5010324;28;20232;-73
2024/01/21 04:09:57;;;;;;;1.13;1.13;;;;;;;;;;5011863;28;21025;-73
2024/01/21 04:12:25;;;;;;;2.73;1.87;;;;;;;;;;5008212;28;20339;-73
2024/01/21 04:14:52;;;;;;;0.93;0.93;;;;;;;;;;5009167;28;20614;-73
2024/01/21 04:17:19;;;;;;;1.40;1.30;;;;;;;;;;5008021;28;20225;-73
2024/01/21 04:19:46;;;;;;;0.80;0.80;;;;;;;;;;5025813;28;20240;-73
2024/01/21 04:22:12;;;;;;;1.43;1.33;;;;;;;;;;5009635;28;20324;-73
2024/01/21 04:24:39;;;;;;;1.60;1.53;;;;;;;;;;5009849;28;20227;-73
2024/01/21 04:27:05;;;;;;;2.50;1.10;;;;;;;;;;5021657;28;20241;-73
2024/01/21 04:29:32;;;;;;;1.83;1.73;;;;;;;;;;5013674;28;20227;-73
2024/01/21 04:31:58;;;;;;;1.93;1.83;;;;;;;;;;5013053;28;20239;-73
2024/01/21 04:34:24;;;;;;;1.27;1.17;;;;;;;;;;5029218;28;20224;-73
2024/01/21 04:36:51;;;;;;;0.40;0.40;;;;;;;;;;5023536;28;20232;-73
2024/01/21 04:39:21;;;;;;;0.93;0.93;;;;;;;;;;5036169;28;20216;-73
2024/01/21 04:41:48;;;;;;;0.30;0.30;;;;;;;;;;5033394;28;20315;-73
2024/01/21 04:44:15;;;;;;;0.30;0.30;;;;;;;;;;5014187;28;20235;-73
2024/01/21 04:46:42;;;;;;;0.93;0.93;;;;;;;;;;5013621;28;20638;-74
2024/01/21 04:49:08;;;;;;;0.77;0.77;;;;;;;;;;5013500;28;20286;-73
2024/01/21 04:51:37;;;;;;;0.30;0.30;;;;;;;;;;5012702;28;20271;-73
2024/01/21 04:54:04;;;;;;;0.47;0.47;;;;;;;;;;5011739;28;20295;-73
2024/01/21 04:56:30;;;;;;;1.50;1.40;;;;;;;;;;5013536;28;20367;-73
2024/01/21 04:58:58;;;;;;;1.43;1.43;;;;;;;;;;5015662;28;20229;-73
2024/01/21 05:01:26;;;;;;;0.50;0.50;;;;;;;;;;5007372;28;20229;-72
2024/01/21 05:04:00;;;;;;;0.80;0.80;;;;;;;;;;5011109;28;20237;-73
2024/01/21 05:06:26;;;;;;;0.40;0.40;;;;;;;;;;5008150;28;20253;-73
2024/01/21 05:08:53;;;;;;;0.40;0.40;;;;;;;;;;5013628;28;20221;-73
2024/01/21 05:11:19;;;;;;;0.77;0.77;;;;;;;;;;5011125;28;20225;-73
2024/01/21 05:13:45;;;;;;;2.00;1.03;;;;;;;;;;5028836;28;20229;-73
2024/01/21 05:16:17;;;;;;;3.60;1.80;;;;;;;;;;5026031;28;20300;-74
2024/01/21 05:18:44;;;;;;;0.50;0.50;;;;;;;;;;5035936;28;20228;-75
2024/01/21 05:21:11;;;;;;;0.77;0.77;;;;;;;;;;5024404;28;20367;-74
2024/01/21 05:23:37;;;;;;;0.93;0.93;;;;;;;;;;5011257;28;20232;-73
2024/01/21 05:26:04;;;;;;;0.50;0.50;;;;;;;;;;5025599;28;20221;-75
2024/01/21 05:28:31;;;;;;;0.50;0.50;;;;;;;;;;5012736;28;20315;-73
2024/01/21 05:30:57;;;;;;;0.40;0.40;;;;;;;;;;5012608;28;20240;-72
2024/01/21 05:33:23;;;;;;;0.37;0.37;;;;;;;;;;5027672;28;20737;-73
2024/01/21 05:35:50;;;;;;;3.57;1.63;;;;;;;;;;5016252;28;20232;-73
2024/01/21 05:38:16;;;;;;;1.60;1.33;;;;;;;;;;5010902;28;20244;-72
2024/01/21 05:40:43;;;;;;;0.30;0.30;;;;;;;;;;5021779;28;20301;-75
2024/01/21 05:43:09;;;;;;;1.20;1.07;;;;;;;;;;5033425;28;20247;-73
2024/01/21 05:45:36;;;;;;;0.87;0.83;;;;;;;;;;5014325;28;20228;-74
2024/01/21 05:48:03;;;;;;;0.80;0.80;;;;;;;;;;5019723;28;20232;-74
2024/01/21 05:50:30;;;;;;;0.50;0.50;;;;;;;;;;5032884;28;20314;-73
2024/01/21 05:52:57;;;;;;;1.80;1.70;;;;;;;;;;5030206;28;20238;-73
2024/01/21 05:55:24;;;;;;;0.90;0.80;;;;;;;;;;5014222;28;20221;-73
2024/01/21 05:57:50;;;;;;;1.60;0.90;;;;;;;;;;5012275;28;20268;-73
2024/01/21 06:00:17;;;;;;;1.03;1.03;;;;;;;;;;5012941;28;20304;-73
2024/01/21 06:02:44;;;;;;;0.50;0.50;;;;;;;;;;5010515;28;20252;-73
2024/01/21 06:05:11;;;;;;;0.50;0.43;;;;;;;;;;5007655;28;20299;-73
2024/01/21 06:07:37;;;;;;;0.30;0.30;;;;;;;;;;5007626;28;20707;-73
2024/01/21 06:10:06;;;;;;;0.30;0.30;;;;;;;;;;5011498;28;20725;-73
2024/01/21 06:12:33;;;;;;;1.60;1.60;;;;;;;;;;5010440;28;20307;-73
2024/01/21 06:14:59;;;;;;;0.57;0.57;;;;;;;;;;5011566;28;20287;-73
2024/01/21 06:17:26;;;;;;;2.80;0.90;;;;;;;;;;5014134;28;20319;-73
2024/01/21 06:19:52;;;;;;;0.63;0.63;;;;;;;;;;5027104;28;20323;-73
2024/01/21 06:22:18;;;;;;;1.13;1.13;;;;;;;;;;5017436;28;20224;-73
2024/01/21 06:24:45;;;;;;;0.47;0.47;;;;;;;;;;5013602;28;20599;-73
2024/01/21 06:27:12;;;;;;;0.67;0.67;;;;;;;;;;5026064;28;20229;-73
2024/01/21 06:29:39;;;;;;;0.93;0.93;;;;;;;;;;5010892;28;20260;-73
2024/01/21 06:32:06;;;;;;;0.93;0.93;;;;;;;;;;5031715;28;20243;-73
2024/01/21 06:34:32;;;;;;;0.73;0.73;;;;;;;;;;5010291;28;20259;-73
2024/01/21 06:36:59;;;;;;;0.80;0.80;;;;;;;;;;5011795;28;20259;-73
2024/01/21 06:39:25;;;;;;;1.60;1.50;;;;;;;;;;5026458;28;20233;-73
2024/01/21 06:41:52;;;;;;;5.40;1.70;;;;;;;;;;5012446;28;20253;-73
2024/01/21 06:44:19;;;;;;;1.27;1.27;;;;;;;;;;5009689;28;20229;-73
2024/01/21 06:46:46;;;;;;;0.93;0.60;;;;;;;;;;5010888;28;21010;-73
2024/01/21 06:49:12;;;;;;;1.90;1.03;;;;;;;;;;5010794;28;20232;-73
2024/01/21 06:51:54;;;;;;;2.00;1.90;;;;;;;;;;5009999;28;20711;-73
2024/01/21 06:54:21;;;;;;;2.07;1.90;;;;;;;;;;5008081;28;20229;-72
2024/01/21 06:56:47;;;;;;;0.90;0.90;;;;;;;;;;5018820;28;20316;-73
2024/01/21 06:59:14;;;;;;;0.63;0.63;;;;;;;;;;5026146;28;20227;-73
2024/01/21 07:01:41;;;;;;;4.43;1.53;;;;;;;;;;5011298;28;20271;-73
2024/01/21 07:04:07;;;;;;;7.83;1.23;;;;;;;;;;5010411;28;20658;-73
2024/01/21 07:06:34;;;;;;;2.87;2.67;;;;;;;;;;5011252;28;20675;-73
2024/01/21 07:09:01;;;;;;;0.80;0.80;;;;;;;;;;5008843;28;20232;-73
2024/01/21 07:11:27;;;;;;;2.63;1.67;;;;;;;;;;5012569;28;20237;-73
2024/01/21 07:13:57;;;;;;;1.47;1.37;;;;;;;;;;5009777;28;20229;-73
2024/01/21 07:16:23;;;;;;;4.00;3.00;;;;;;;;;;5022283;28;20225;-73
2024/01/21 07:18:50;;;;;;;1.13;1.13;;;;;;;;;;5033563;28;20263;-74
2024/01/21 07:21:16;;;;;;;1.53;1.43;;;;;;;;;;5032320;28;20248;-73
2024/01/21 07:23:43;;;;;;;1.43;1.33;;;;;;;;;;5012382;28;20315;-73
2024/01/21 07:26:10;;;;;;;0.90;0.90;;;;;;;;;;5010760;28;20228;-73
2024/01/21 07:28:36;;;;;;;0.90;0.90;;;;;;;;;;5010221;28;20225;-73
2024/01/21 07:31:02;;;;;;;1.67;1.57;;;;;;;;;;5010898;28;20232;-73
2024/01/21 07:33:29;;;;;;;2.43;2.20;;;;;;;;;;5010994;28;20323;-73
2024/01/21 07:35:58;;;;;;;2.03;1.83;;;;;;;;;;5007765;28;20259;-74
2024/01/21 07:38:24;;;;;;;0.87;0.87;;;;;;;;;;5032888;28;20280;-73
2024/01/21 07:40:51;;;;;;;2.73;2.00;;;;;;;;;;5017649;28;20232;-73
2024/01/21 07:43:17;;;;;;;1.37;1.23;;;;;;;;;;5009212;28;20232;-73
2024/01/21 07:45:44;;;;;;;1.33;1.33;;;;;;;;;;5010370;28;20717;-73
2024/01/21 07:48:10;;;;;;;1.00;1.00;;;;;;;;;;5009985;28;20240;-73
2024/01/21 07:50:37;;;;;;;0.80;0.80;;;;;;;;;;5010758;28;20227;-73
2024/01/21 07:53:05;;;;;;;0.63;0.63;;;;;;;;;;5008415;28;20220;-73
2024/01/21 07:55:31;;;;;;;1.93;1.57;;;;;;;;;;5007690;28;20600;-73
2024/01/21 07:57:58;;;;;;;0.73;0.73;;;;;;;;;;5010056;28;20232;-73
2024/01/21 08:00:24;;;;;;;0.73;0.73;;;;;;;;;;5024815;28;20315;-73
2024/01/21 08:02:51;;;;;;;0.37;0.37;;;;;;;;;;5012889;28;20225;-73
2024/01/21 08:05:18;;;;;;;0.50;0.50;;;;;;;;;;5014034;28;20375;-73
2024/01/21 08:07:45;;;;;;;0.80;0.80;;;;;;;;;;5014321;28;20772;-73
2024/01/21 08:10:11;;;;;;;0.60;0.60;;;;;;;;;;5029904;28;20730;-73
2024/01/21 08:12:38;;;;;;;1.50;0.93;;;;;;;;;;5011913;28;20312;-73
2024/01/21 08:15:05;;;;;;;0.80;0.80;;;;;;;;;;5013385;28;20239;-73
2024/01/21 08:17:31;;;;;;;0.83;0.83;;;;;;;;;;5014027;28;20235;-73
2024/01/21 08:19:58;;;;;;;0.87;0.87;;;;;;;;;;5027041;28;20766;-73
2024/01/21 08:22:25;;;;;;;0.30;0.30;;;;;;;;;;5012714;28;20225;-73
2024/01/21 08:24:54;;;;;;;0.70;0.70;;;;;;;;;;5013801;28;20227;-73
2024/01/21 08:27:21;;;;;;;0.67;0.67;;;;;;;;;;5013004;28;20231;-73
2024/01/21 08:29:47;;;;;;;0.40;0.40;;;;;;;;;;5018974;28;20761;-74
2024/01/21 08:32:14;;;;;;;0.73;0.73;;;;;;;;;;5009014;28;20801;-74
2024/01/21 08:34:40;;;;;;;0.40;0.40;;;;;;;;;;5013867;28;20581;-74
2024/01/21 08:37:06;;;;;;;0.90;0.90;;;;;;;;;;5033600;28;20232;-74
2024/01/21 08:39:33;;;;;;;0.70;0.70;;;;;;;;;;5028050;28;20315;-73
2024/01/21 08:42:01;;;;;;;0.50;0.50;;;;;;;;;;5014118;28;20734;-73
2024/01/21 08:44:28;;;;;;;0.93;0.93;;;;;;;;;;5034715;28;20216;-74
2024/01/21 08:46:55;;;;;;;0.50;0.50;;;;;;;;;;5025320;28;20253;-73
2024/01/21 08:49:22;;;;;;;2.53;1.33;;;;;;;;;;5027895;28;20221;-73
2024/01/21 08:51:48;;;;;;;0.57;0.57;;;;;;;;;;5011838;28;20227;-73
2024/01/21 08:54:15;;;;;;;0.80;0.80;;;;;;;;;;5011204;28;20659;-76
2024/01/21 08:56:42;;;;;;;0.47;0.47;;;;;;;;;;5008686;28;20249;-75
2024/01/21 08:59:09;;;;;;;0.33;0.33;;;;;;;;;;5026221;28;20221;-76
2024/01/21 09:01:36;;;;;;;0.40;0.40;;;;;;;;;;5009398;28;20228;-73
2024/01/21 09:04:02;;;;;;;0.87;0.87;;;;;;;;;;5012477;28;20285;-74
2024/01/21 09:06:29;;;;;;;0.90;0.90;;;;;;;;;;5015444;28;20232;-73
2024/01/21 09:08:57;;;;;;;0.60;0.60;;;;;;;;;;5009771;28;20259;-74
2024/01/21 09:11:28;;;;;;;0.50;0.50;;;;;;;;;;5011627;28;20224;-73
2024/01/21 09:13:54;;;;;;;0.83;0.83;;;;;;;;;;5008554;28;20221;-74
2024/01/21 09:16:20;;;;;;;1.60;1.50;;;;;;;;;;5008864;28;20778;-74
2024/01/21 09:18:47;;;;;;;1.17;0.97;;;;;;;;;;5015279;28;20228;-73
2024/01/21 09:21:14;;;;;;;0.60;0.60;;;;;;;;;;5009550;28;20617;-73
2024/01/21 09:23:55;;;;;;;0.27;0.27;;;;;;;;;;5008261;28;20224;-73
2024/01/21 09:26:21;;;;;;;2.47;1.77;;;;;;;;;;5023752;28;20229;-73
2024/01/21 09:28:48;;;;;;;1.43;1.33;;;;;;;;;;5008732;28;20225;-73
2024/01/21 09:31:14;;;;;;;0.57;0.57;;;;;;;;;;5011024;28;20831;-73
2024/01/21 09:33:40;;;;;;;0.30;0.30;;;;;;;;;;5009690;28;20228;-73
2024/01/21 09:36:07;;;;;;;0.50;0.50;;;;;;;;;;5012288;28;20324;-74
2024/01/21 09:38:34;;;;;;;1.23;1.23;;;;;;;;;;5010950;28;20260;-74
2024/01/21 09:41:32;;;;;;;0.50;0.50;;;;;;;;;;5010031;28;20421;-74
2024/01/21 09:43:58;;;;;;;0.47;0.47;;;;;;;;;;5008802;28;20229;-73
2024/01/21 09:46:25;;;;;;;0.87;0.87;;;;;;;;;;5008293;28;20231;-74
2024/01/21 09:48:53;;;;;;;1.10;1.10;;;;;;;;;;5009907;28;20383;-74
2024/01/21 09:51:20;;;;;;;0.40;0.40;;;;;;;;;;5009909;28;20233;-74
2024/01/21 09:53:47;;;;;;;0.53;0.53;;;;;;;;;;5008618;28;20226;-76
2024/01/21 09:56:14;;;;;;;0.77;0.77;;;;;;;;;;5012270;28;20244;-75
2024/01/21 09:58:48;;;;;;;0.20;0.20;;;;;;;;;;5024551;28;20224;-75
2024/01/21 10:01:15;;;;;;;1.13;0.80;;;;;;;;;;5028950;28;20225;-76
2024/01/21 10:03:42;;;;;;;0.30;0.30;;;;;;;;;;5035381;28;20272;-74
2024/01/21 10:06:09;;;;;;;0.47;0.47;;;;;;;;;;5009831;28;20232;-75
2024/01/21 10:08:37;;;;;;;0.40;0.40;;;;;;;;;;5005815;28;20221;-75
2024/01/21 10:11:04;;;;;;;0.60;0.60;;;;;;;;;;5009706;28;20239;-74
2024/01/21 10:13:31;;;;;;;0.70;0.70;;;;;;;;;;5006346;28;20232;-73
2024/01/21 10:15:58;;;;;;;0.30;0.30;;;;;;;;;;5005480;28;20233;-74
2024/01/21 10:18:26;;;;;;;0.60;0.60;;;;;;;;;;5008171;28;20225;-75
2024/01/21 10:20:52;;;;;;;0.30;0.30;;;;;;;;;;5024287;28;20236;-73
2024/01/21 10:23:20;;;;;;;0.40;0.40;;;;;;;;;;5005715;28;20318;-76
2024/01/21 10:25:48;;;;;;;0.60;0.60;;;;;;;;;;5005723;28;20228;-75
2024/01/21 10:28:15;;;;;;;1.07;0.80;;;;;;;;;;5003228;28;20235;-75
2024/01/21 10:30:46;;;;;;;0.80;0.80;;;;;;;;;;5005082;28;20614;-76
2024/01/21 10:33:13;;;;;;;0.93;0.93;;;;;;;;;;5002597;28;20232;-75
2024/01/21 10:35:43;;;;;;;0.70;0.70;;;;;;;;;;5003679;28;20227;-76
2024/01/21 10:38:11;;;;;;;4.80;1.13;;;;;;;;;;5016889;28;20240;-76
2024/01/21 10:40:43;;;;;;;2.80;1.70;;;;;;;;;;5007675;28;20781;-75
2024/01/21 10:43:14;;;;;;;0.60;0.60;;;;;;;;;;5007547;28;20337;-76
2024/01/21 10:45:44;;;;;;;0.90;0.90;;;;;;;;;;5003023;28;20224;-75
2024/01/21 10:48:16;;;;;;;1.27;0.77;;;;;;;;;;5007124;28;20224;-76
2024/01/21 10:50:44;;;;;;;0.83;0.83;;;;;;;;;;5008480;28;20228;-76
2024/01/21 10:53:12;;;;;;;0.30;0.30;;;;;;;;;;5005589;28;20237;-76
2024/01/21 10:55:42;;;;;;;0.30;0.30;;;;;;;;;;5011866;28;20224;-74
2024/01/21 10:58:11;;;;;;;0.60;0.60;;;;;;;;;;5005131;28;20306;-76
2024/01/21 11:00:38;;;;;;;0.33;0.33;;;;;;;;;;4998291;28;20240;-76
2024/01/21 11:03:20;;;;;;;0.30;0.30;;;;;;;;;;4998953;28;20240;-76
2024/01/21 11:05:47;;;;;;;0.40;0.40;;;;;;;;;;5005552;28;20228;-76
2024/01/21 11:08:15;;;;;;;0.30;0.30;;;;;;;;;;5003823;28;20255;-76
2024/01/21 11:10:41;;;;;;;4.23;1.07;;;;;;;;;;5003240;28;20243;-76
2024/01/21 11:13:09;;;;;;;0.20;0.20;;;;;;;;;;5002497;28;20224;-76
2024/01/21 11:15:35;;;;;;;0.30;0.30;;;;;;;;;;5001560;28;20225;-76
2024/01/21 11:18:09;;;;;;;0.30;0.30;;;;;;;;;;5001722;28;20233;-77
2024/01/21 11:20:38;;;;;;;0.30;0.30;;;;;;;;;;5001209;28;20318;-76
2024/01/21 11:23:14;;;;;;;0.40;0.40;;;;;;;;;;4997856;28;20236;-76
2024/01/21 11:25:49;;;;;;;0.50;0.50;;;;;;;;;;4994452;28;20234;-76
2024/01/21 11:28:29;;;;;;;0.40;0.40;;;;;;;;;;5006449;28;20246;-75
2024/01/21 11:31:03;;;;;;;0.30;0.30;;;;;;;;;;5001494;28;20608;-79
2024/01/21 11:33:30;;;;;;;0.30;0.30;;;;;;;;;;5001225;28;20221;-76
2024/01/21 11:35:59;;;;;;;0.30;0.30;;;;;;;;;;5002388;28;20259;-77
2024/01/21 11:38:26;;;;;;;0.63;0.63;;;;;;;;;;5006720;28;20567;-76
2024/01/21 11:41:02;;;;;;;0.37;0.37;;;;;;;;;;5004941;28;20236;-76
2024/01/21 11:43:31;;;;;;;0.50;0.50;;;;;;;;;;5023850;28;20230;-75
2024/01/21 11:46:01;;;;;;;0.30;0.30;;;;;;;;;;5017922;28;20227;-85
2024/01/21 11:48:29;;;;;;;0.30;0.30;;;;;;;;;;5004661;28;20737;-75
2024/01/21 11:50:57;;;;;;;0.47;0.47;;;;;;;;;;5000909;28;20236;-75
2024/01/21 11:53:24;;;;;;;0.20;0.20;;;;;;;;;;5004885;28;20240;-75
2024/01/21 11:55:51;;;;;;;0.30;0.30;;;;;;;;;;5006606;28;20235;-76
2024/01/21 11:58:18;;;;;;;0.33;0.33;;;;;;;;;;5000303;28;20319;-78
2024/01/21 12:00:45;;;;;;;0.30;0.30;;;;;;;;;;5004552;28;20235;-76
2024/01/21 12:03:12;;;;;;;0.57;0.57;;;;;;;;;;4998483;28;20737;-75
2024/01/21 12:05:39;;;;;;;0.30;0.30;;;;;;;;;;4995764;28;20228;-75
2024/01/21 12:08:07;;;;;;;0.50;0.50;;;;;;;;;;5000561;28;20234;-76
2024/01/21 12:10:34;;;;;;;0.30;0.30;;;;;;;;;;5001811;28;20232;-76
2024/01/21 12:13:05;;;;;;;0.30;0.30;;;;;;;;;;5004435;28;20607;-76
2024/01/21 12:15:35;;;;;;;0.30;0.30;;;;;;;;;;5000993;28;20239;-76
2024/01/21 12:18:03;;;;;;;0.30;0.30;;;;;;;;;;5004260;28;20224;-74
2024/01/21 12:20:30;;;;;;;0.30;0.30;;;;;;;;;;4999915;28;20791;-74
2024/01/21 12:22:56;;;;;;;0.40;0.40;;;;;;;;;;5002254;28;20220;-74
2024/01/21 12:25:22;;;;;;;0.30;0.30;;;;;;;;;;5001001;28;20240;-74
2024/01/21 12:27:55;;;;;;;0.30;0.30;;;;;;;;;;5004376;28;20231;-74
2024/01/21 12:30:24;;;;;;;0.30;0.30;;;;;;;;;;5005879;28;20268;-75
2024/01/21 12:32:51;;;;;;;0.30;0.30;;;;;;;;;;5002710;28;20650;-74
2024/01/21 12:35:25;;;;;;;0.30;0.30;;;;;;;;;;5009271;28;20216;-75
2024/01/21 12:37:52;;;;;;;0.20;0.20;;;;;;;;;;5009533;28;20233;-74
2024/01/21 12:40:19;;;;;;;0.50;0.50;;;;;;;;;;5004903;28;20228;-75
2024/01/21 12:42:45;;;;;;;0.33;0.33;;;;;;;;;;5008545;28;20228;-75
2024/01/21 12:45:12;;;;;;;0.60;0.60;;;;;;;;;;5007316;28;20296;-74
2024/01/21 12:47:39;;;;;;;0.30;0.30;;;;;;;;;;5008804;28;20237;-76
2024/01/21 12:50:07;;;;;;;0.83;0.83;;;;;;;;;;5006858;28;20231;-74
2024/01/21 12:52:34;;;;;;;0.30;0.30;;;;;;;;;;5009098;28;20235;-82
2024/01/21 12:55:00;;;;;;;0.30;0.30;;;;;;;;;;5025428;28;20217;-77
2024/01/21 12:57:27;;;;;;;0.30;0.30;;;;;;;;;;5020526;28;20252;-77
2024/01/21 12:59:53;;;;;;;0.30;0.30;;;;;;;;;;5010182;28;20262;-77
2024/01/21 13:02:20;;;;;;;1.63;1.53;;;;;;;;;;5010771;28;20232;-77
2024/01/21 13:04:47;;;;;;;0.50;0.50;;;;;;;;;;5010799;28;20228;-94
2024/01/21 13:07:14;;;;;;;0.53;0.53;;;;;;;;;;5011576;28;20311;-76
2024/01/21 13:09:41;;;;;;;0.20;0.20;;;;;;;;;;5009393;28;20239;-76
2024/01/21 13:12:08;;;;;;;0.30;0.30;;;;;;;;;;5008240;28;20299;-76
2024/01/21 13:14:35;;;;;;;0.30;0.30;;;;;;;;;;5010939;28;20220;-76
2024/01/21 13:17:02;;;;;;;0.20;0.20;;;;;;;;;;5008685;28;20232;-76
2024/01/21 13:19:28;;;;;;;0.33;0.33;;;;;;;;;;5027560;28;20604;-76
2024/01/21 13:21:55;;;;;;;0.20;0.20;;;;;;;;;;5026984;28;20260;-76
2024/01/21 13:24:22;;;;;;;0.30;0.30;;;;;;;;;;5007778;28;20274;-76
2024/01/21 13:26:57;;;;;;;0.40;0.40;;;;;;;;;;5014001;28;20722;-78
2024/01/21 13:32:11;;;;;;;0.30;0.30;;;;;;;;;;5005585;28;20244;-76
2024/01/21 13:34:38;;;;;;;0.30;0.30;;;;;;;;;;5007000;28;20233;-76
2024/01/21 13:37:10;;;;;;;0.40;0.40;;;;;;;;;;5009885;28;20229;-76
2024/01/21 13:39:36;;;;;;;0.30;0.30;;;;;;;;;;5006954;28;20340;-77
2024/01/21 13:42:03;;;;;;;0.40;0.40;;;;;;;;;;5011557;28;20232;-76
2024/01/21 13:44:30;;;;;;;0.30;0.30;;;;;;;;;;5007081;28;20264;-82
2024/01/21 13:46:59;;;;;;;1.00;1.00;;;;;;;;;;5007248;28;20260;-82
2024/01/21 13:49:26;;;;;;;0.53;0.50;;;;;;;;;;5011110;28;20729;-80
2024/01/21 13:51:52;;;;;;;0.30;0.30;;;;;;;;;;5013545;28;20229;-77
2024/01/21 13:54:19;;;;;;;0.30;0.30;;;;;;;;;;5011389;28;20627;-77
2024/01/21 13:56:46;;;;;;;0.30;0.30;;;;;;;;;;5012167;28;20229;-77
2024/01/21 13:59:13;;;;;;;0.60;0.60;;;;;;;;;;5013185;28;20258;-77
2024/01/21 14:01:39;;;;;;;0.30;0.30;;;;;;;;;;5010096;28;20246;-79
2024/01/21 14:04:05;;;;;;;0.30;0.30;;;;;;;;;;5008710;28;20225;-78
2024/01/21 14:06:32;;;;;;;0.30;0.30;;;;;;;;;;5007575;28;20697;-78
2024/01/21 14:08:58;;;;;;;0.30;0.30;;;;;;;;;;5026711;28;20260;-75
2024/01/21 14:11:25;;;;;;;0.40;0.40;;;;;;;;;;5008517;28;20232;-75
2024/01/21 14:13:51;;;;;;;0.30;0.30;;;;;;;;;;5012648;28;20217;-75
2024/01/21 14:16:18;;;;;;;0.30;0.30;;;;;;;;;;5007077;28;20225;-74
2024/01/21 14:18:46;;;;;;;0.30;0.30;;;;;;;;;;5009306;28;20229;-74
2024/01/21 14:21:13;;;;;;;0.30;0.30;;;;;;;;;;5007226;28;20237;-76
2024/01/21 14:23:40;;;;;;;0.40;0.40;;;;;;;;;;5008246;28;20228;-77
2024/01/21 14:26:09;;;;;;;0.20;0.20;;;;;;;;;;5009228;28;20228;-77
2024/01/21 14:28:41;;;;;;;0.30;0.30;;;;;;;;;;5006401;28;20243;-77
2024/01/21 14:31:08;;;;;;;0.30;0.30;;;;;;;;;;5009384;28;20602;-77
2024/01/21 14:33:35;;;;;;;0.30;0.30;;;;;;;;;;5008244;28;20251;-79
2024/01/21 14:36:01;;;;;;;0.80;0.80;;;;;;;;;;5007914;28;20315;-78
2024/01/21 14:38:28;;;;;;;0.20;0.20;;;;;;;;;;5009303;28;20236;-77
2024/01/21 14:40:54;;;;;;;0.37;0.37;;;;;;;;;;5008849;28;20232;-77
2024/01/21 14:43:21;;;;;;;0.20;0.20;;;;;;;;;;5008745;28;20658;-77
2024/01/21 14:45:47;;;;;;;0.20;0.20;;;;;;;;;;5008906;28;20231;-77
2024/01/21 14:48:14;;;;;;;0.30;0.30;;;;;;;;;;5007513;28;20227;-77